Time;durP1;ratioP1;P1;durP2;ratioP2;P2;SDS_P1;SDS_P2;PMS_P1;PMS_P2;Temp;Humidity;BMP_temperature;BMP_pressure;BME280_temperature;BME280_humidity;BME280_pressure;Samples;Min_cycle;Max_cycle;Signal;HPM_P1;HPM_P2
2021/06/05 00:03:24;;;;;;;30.23;21.60;;;;;;;;;;13103851;22;20705;-90
2021/06/05 00:08:27;;;;;;;30.20;21.13;;;;;;;;;;13103760;22;20183;-82
2021/06/05 00:13:31;;;;;;;32.67;22.43;;;;;;;;;;13072770;22;20181;-82
2021/06/05 00:18:35;;;;;;;36.43;22.70;;;;;;;;;;13074253;22;20169;-83
2021/06/05 00:23:38;;;;;;;34.33;22.90;;;;;;;;;;13074119;22;21079;-82
2021/06/05 00:28:40;;;;;;;36.23;23.13;;;;;;;;;;13077284;22;20165;-82
2021/06/05 00:33:44;;;;;;;38.23;22.70;;;;;;;;;;13093880;22;20173;-83
2021/06/05 00:38:46;;;;;;;40.10;23.70;;;;;;;;;;13077061;22;20173;-82
2021/06/05 00:43:50;;;;;;;41.73;25.03;;;;;;;;;;13095315;22;20322;-82
2021/06/05 00:48:54;;;;;;;45.43;27.13;;;;;;;;;;13072592;22;20613;-82
2021/06/05 00:53:58;;;;;;;44.70;26.87;;;;;;;;;;13072733;22;20253;-82
2021/06/05 00:59:00;;;;;;;40.73;25.63;;;;;;;;;;13047673;22;20177;-83
2021/06/05 01:04:04;;;;;;;41.73;25.73;;;;;;;;;;13070562;22;20212;-83
2021/06/05 01:09:09;;;;;;;42.10;25.60;;;;;;;;;;13095576;22;20169;-82
2021/06/05 01:14:15;;;;;;;39.07;23.23;;;;;;;;;;13094777;22;20176;-82
2021/06/05 01:19:29;;;;;;;37.73;23.50;;;;;;;;;;13094687;22;20165;-82
2021/06/05 01:24:43;;;;;;;38.40;23.03;;;;;;;;;;13094597;22;20200;-83
2021/06/05 01:29:50;;;;;;;38.80;22.73;;;;;;;;;;13096993;22;20961;-82
2021/06/05 01:34:55;;;;;;;40.10;23.10;;;;;;;;;;13071730;22;20169;-83
2021/06/05 01:39:57;;;;;;;38.93;23.20;;;;;;;;;;13079441;22;20211;-82
2021/06/05 01:45:01;;;;;;;34.57;21.60;;;;;;;;;;13076301;22;20634;-83
2021/06/05 01:50:04;;;;;;;38.20;21.80;;;;;;;;;;13097581;22;20192;-82
2021/06/05 01:55:10;;;;;;;38.83;22.80;;;;;;;;;;13077914;22;20193;-83
2021/06/05 02:00:16;;;;;;;39.20;21.53;;;;;;;;;;13077876;22;20967;-83
2021/06/05 02:05:19;;;;;;;40.33;21.10;;;;;;;;;;13096211;22;20256;-82
2021/06/05 02:10:24;;;;;;;36.77;20.10;;;;;;;;;;13099211;22;20173;-83
2021/06/05 02:15:32;;;;;;;35.70;19.43;;;;;;;;;;13077595;22;20165;-83
2021/06/05 02:20:36;;;;;;;31.97;17.83;;;;;;;;;;13098419;22;20205;-83
2021/06/05 02:25:38;;;;;;;26.33;15.10;;;;;;;;;;13099288;22;20256;-83
2021/06/05 02:30:42;;;;;;;23.77;13.43;;;;;;;;;;13079632;22;20180;-82
2021/06/05 02:35:45;;;;;;;21.90;12.57;;;;;;;;;;13096426;22;20173;-82
2021/06/05 02:40:48;;;;;;;23.10;12.53;;;;;;;;;;13078313;22;20533;-82
2021/06/05 02:45:55;;;;;;;20.80;11.70;;;;;;;;;;13100381;22;20188;-82
2021/06/05 02:50:57;;;;;;;22.30;12.00;;;;;;;;;;13096911;22;20235;-82
2021/06/05 02:56:00;;;;;;;24.47;12.70;;;;;;;;;;13078960;22;20192;-82
2021/06/05 03:01:05;;;;;;;23.20;11.60;;;;;;;;;;13078319;22;20620;-82
2021/06/05 03:06:08;;;;;;;22.37;11.57;;;;;;;;;;13098926;22;20170;-82
2021/06/05 03:11:12;;;;;;;21.70;11.57;;;;;;;;;;13075554;22;20184;-82
2021/06/05 03:16:16;;;;;;;20.43;11.50;;;;;;;;;;13075969;22;20187;-82
2021/06/05 03:21:20;;;;;;;19.63;11.53;;;;;;;;;;13071958;22;20246;-82
2021/06/05 03:26:22;;;;;;;20.87;11.40;;;;;;;;;;13050578;22;20496;-82
2021/06/05 03:31:26;;;;;;;20.30;12.40;;;;;;;;;;13076211;22;20185;-82
2021/06/05 03:36:29;;;;;;;20.87;11.87;;;;;;;;;;13098521;22;20176;-83
2021/06/05 03:41:32;;;;;;;20.07;11.60;;;;;;;;;;13097829;22;20427;-83
2021/06/05 03:46:35;;;;;;;19.57;11.63;;;;;;;;;;13076966;22;20177;-83
2021/06/05 03:51:38;;;;;;;19.73;11.07;;;;;;;;;;13073912;22;20185;-82
2021/06/05 03:56:40;;;;;;;19.33;11.87;;;;;;;;;;13077725;22;20177;-82
2021/06/05 04:01:44;;;;;;;20.30;11.67;;;;;;;;;;13073237;22;20638;-83
2021/06/05 04:06:46;;;;;;;20.03;12.00;;;;;;;;;;13075517;22;20177;-82
2021/06/05 04:11:49;;;;;;;22.30;11.77;;;;;;;;;;13075638;22;20257;-82
2021/06/05 04:16:52;;;;;;;18.60;11.30;;;;;;;;;;13076347;22;20185;-82
2021/06/05 04:21:56;;;;;;;21.80;11.73;;;;;;;;;;13094711;22;20211;-83
2021/06/05 04:26:59;;;;;;;18.27;11.37;;;;;;;;;;13076932;22;20189;-83
2021/06/05 04:32:03;;;;;;;18.20;10.77;;;;;;;;;;13095048;22;20661;-82
2021/06/05 04:37:05;;;;;;;19.90;11.13;;;;;;;;;;13096051;22;20251;-83
2021/06/05 04:42:09;;;;;;;18.43;11.23;;;;;;;;;;13076058;22;20214;-83
2021/06/05 04:47:12;;;;;;;17.97;10.73;;;;;;;;;;13076388;22;20173;-83
2021/06/05 04:52:20;;;;;;;18.53;11.10;;;;;;;;;;13092618;22;20196;-82
2021/06/05 04:57:22;;;;;;;15.80;10.00;;;;;;;;;;13094183;22;20406;-83
2021/06/05 05:02:26;;;;;;;16.53;9.90;;;;;;;;;;13098362;22;20304;-82
2021/06/05 05:07:28;;;;;;;14.87;9.60;;;;;;;;;;13094589;22;20196;-83
2021/06/05 05:12:30;;;;;;;14.23;9.30;;;;;;;;;;13077353;22;20173;-83
2021/06/05 05:17:34;;;;;;;13.47;9.50;;;;;;;;;;13074246;22;20238;-82
2021/06/05 05:22:38;;;;;;;14.17;9.13;;;;;;;;;;13097398;22;20204;-83
2021/06/05 05:27:41;;;;;;;14.30;9.50;;;;;;;;;;13074327;22;20885;-82
2021/06/05 05:32:44;;;;;;;20.33;9.43;;;;;;;;;;13075313;22;20814;-83
2021/06/05 05:37:47;;;;;;;16.63;9.87;;;;;;;;;;13077507;22;20177;-83
2021/06/05 05:42:49;;;;;;;15.70;9.73;;;;;;;;;;13097995;22;20656;-83
2021/06/05 05:47:55;;;;;;;15.03;9.57;;;;;;;;;;13095651;22;20181;-83
2021/06/05 05:52:58;;;;;;;16.27;9.80;;;;;;;;;;13100061;22;20686;-86
2021/06/05 05:58:05;;;;;;;13.70;9.70;;;;;;;;;;13078092;22;20177;-82
2021/06/05 06:03:09;;;;;;;12.87;8.10;;;;;;;;;;13088272;22;20197;-87
2021/06/05 06:08:12;;;;;;;14.90;10.20;;;;;;;;;;13109442;22;20232;-87
2021/06/05 06:13:15;;;;;;;17.53;9.40;;;;;;;;;;13085259;22;20184;-89
2021/06/05 06:18:19;;;;;;;11.93;8.67;;;;;;;;;;13107099;22;20181;-87
2021/06/05 06:23:22;;;;;;;13.47;9.20;;;;;;;;;;13090303;22;20205;-88
2021/06/05 06:28:26;;;;;;;12.90;8.60;;;;;;;;;;13117342;22;20165;-89
2021/06/05 06:33:30;;;;;;;11.50;8.63;;;;;;;;;;13082769;22;20184;-90
2021/06/05 06:38:36;;;;;;;9.30;6.93;;;;;;;;;;13124175;22;20174;-88
2021/06/05 06:43:40;;;;;;;9.97;7.20;;;;;;;;;;13107295;22;20204;-91
2021/06/05 06:48:44;;;;;;;9.07;7.00;;;;;;;;;;13085366;22;20174;-90
2021/06/05 06:53:46;;;;;;;7.27;5.63;;;;;;;;;;13091007;22;20200;-92
2021/06/05 06:58:49;;;;;;;8.03;6.10;;;;;;;;;;13104174;22;20653;-90
2021/06/05 07:03:53;;;;;;;7.30;5.80;;;;;;;;;;13124077;22;20204;-92
2021/06/05 07:08:57;;;;;;;7.67;5.70;;;;;;;;;;13090394;22;20485;-82
2021/06/05 07:14:01;;;;;;;8.83;5.53;;;;;;;;;;13053712;22;20184;-80
2021/06/05 07:19:06;;;;;;;10.90;7.77;;;;;;;;;;13077164;22;20495;-79
2021/06/05 07:24:09;;;;;;;11.73;7.93;;;;;;;;;;13097045;22;20223;-86
2021/06/05 07:29:12;;;;;;;10.17;7.57;;;;;;;;;;13100831;22;20215;-86
2021/06/05 07:34:16;;;;;;;12.63;8.43;;;;;;;;;;13075251;22;20180;-82
2021/06/05 07:39:21;;;;;;;14.20;9.13;;;;;;;;;;13078445;22;20642;-87
2021/06/05 07:44:23;;;;;;;11.93;8.03;;;;;;;;;;13098534;22;20219;-84
2021/06/05 07:49:29;;;;;;;13.30;9.07;;;;;;;;;;13076030;22;20930;-86
2021/06/05 07:54:31;;;;;;;13.37;9.67;;;;;;;;;;13057332;22;20284;-77
